sensor_id;sensor_type;location;lat;lon;timestamp;P1;durP1;ratioP1;P2;durP2;ratioP2
79454;SDS011;68900;52.134;5.420;2023-08-30T00:01:02;7.82;;;3.22;;
79454;SDS011;68900;52.134;5.420;2023-08-30T00:03:28;8.48;;;4.47;;
79454;SDS011;68900;52.134;5.420;2023-08-30T00:05:55;8.85;;;3.95;;
79454;SDS011;68900;52.134;5.420;2023-08-30T00:08:21;7.47;;;3.65;;
79454;SDS011;68900;52.134;5.420;2023-08-30T00:10:48;8.75;;;3.65;;
79454;SDS011;68900;52.134;5.420;2023-08-30T00:13:16;11.05;;;4.20;;
79454;SDS011;68900;52.134;5.420;2023-08-30T00:15:43;9.20;;;4.32;;
79454;SDS011;68900;52.134;5.420;2023-08-30T00:18:09;8.45;;;4.10;;
79454;SDS011;68900;52.134;5.420;2023-08-30T00:20:36;6.80;;;4.22;;
79454;SDS011;68900;52.134;5.420;2023-08-30T00:23:03;8.82;;;4.45;;
79454;SDS011;68900;52.134;5.420;2023-08-30T00:25:30;10.55;;;5.13;;
79454;SDS011;68900;52.134;5.420;2023-08-30T00:27:57;8.25;;;4.32;;
79454;SDS011;68900;52.134;5.420;2023-08-30T00:30:23;8.70;;;4.80;;
79454;SDS011;68900;52.134;5.420;2023-08-30T00:32:50;7.30;;;4.35;;
79454;SDS011;68900;52.134;5.420;2023-08-30T00:35:17;10.45;;;4.65;;
79454;SDS011;68900;52.134;5.420;2023-08-30T00:37:43;7.50;;;4.05;;
79454;SDS011;68900;52.134;5.420;2023-08-30T00:40:10;10.18;;;5.00;;
79454;SDS011;68900;52.134;5.420;2023-08-30T00:42:37;9.65;;;4.53;;
79454;SDS011;68900;52.134;5.420;2023-08-30T00:45:03;8.60;;;4.75;;
79454;SDS011;68900;52.134;5.420;2023-08-30T00:47:30;9.05;;;5.20;;
79454;SDS011;68900;52.134;5.420;2023-08-30T00:49:57;12.52;;;5.25;;
79454;SDS011;68900;52.134;5.420;2023-08-30T00:52:24;9.38;;;4.72;;
79454;SDS011;68900;52.134;5.420;2023-08-30T00:54:50;8.57;;;4.82;;
79454;SDS011;68900;52.134;5.420;2023-08-30T00:57:17;8.82;;;4.63;;
79454;SDS011;68900;52.134;5.420;2023-08-30T00:59:44;10.10;;;4.85;;
79454;SDS011;68900;52.134;5.420;2023-08-30T01:02:10;8.93;;;5.18;;
79454;SDS011;68900;52.134;5.420;2023-08-30T01:04:38;8.88;;;4.28;;
79454;SDS011;68900;52.134;5.420;2023-08-30T01:07:05;9.30;;;4.57;;
79454;SDS011;68900;52.134;5.420;2023-08-30T01:09:31;8.90;;;4.88;;
79454;SDS011;68900;52.134;5.420;2023-08-30T01:12:06;8.93;;;5.07;;
79454;SDS011;68900;52.134;5.420;2023-08-30T01:14:40;9.38;;;4.60;;
79454;SDS011;68900;52.134;5.420;2023-08-30T01:17:12;7.70;;;4.45;;
79454;SDS011;68900;52.134;5.420;2023-08-30T01:27:58;8.38;;;4.55;;
79454;SDS011;68900;52.134;5.420;2023-08-30T01:30:30;9.50;;;4.45;;
79454;SDS011;68900;52.134;5.420;2023-08-30T01:33:02;9.80;;;4.53;;
79454;SDS011;68900;52.134;5.420;2023-08-30T01:35:33;8.77;;;3.97;;
79454;SDS011;68900;52.134;5.420;2023-08-30T01:38:03;8.68;;;4.03;;
79454;SDS011;68900;52.134;5.420;2023-08-30T01:40:33;8.85;;;4.32;;
79454;SDS011;68900;52.134;5.420;2023-08-30T01:43:03;8.57;;;5.03;;
79454;SDS011;68900;52.134;5.420;2023-08-30T01:45:32;8.23;;;4.35;;
79454;SDS011;68900;52.134;5.420;2023-08-30T01:48:03;7.45;;;4.18;;
79454;SDS011;68900;52.134;5.420;2023-08-30T01:50:32;8.50;;;4.63;;
79454;SDS011;68900;52.134;5.420;2023-08-30T01:53:00;8.85;;;4.47;;
79454;SDS011;68900;52.134;5.420;2023-08-30T01:55:28;9.45;;;4.72;;
79454;SDS011;68900;52.134;5.420;2023-08-30T01:57:56;8.52;;;4.65;;
79454;SDS011;68900;52.134;5.420;2023-08-30T02:00:22;8.85;;;4.65;;
79454;SDS011;68900;52.134;5.420;2023-08-30T02:02:49;10.80;;;4.57;;
79454;SDS011;68900;52.134;5.420;2023-08-30T02:05:15;8.15;;;4.47;;
79454;SDS011;68900;52.134;5.420;2023-08-30T02:10:28;9.38;;;4.15;;
79454;SDS011;68900;52.134;5.420;2023-08-30T02:12:59;8.68;;;5.07;;
79454;SDS011;68900;52.134;5.420;2023-08-30T02:15:29;8.38;;;4.00;;
79454;SDS011;68900;52.134;5.420;2023-08-30T02:20:25;8.73;;;4.55;;
79454;SDS011;68900;52.134;5.420;2023-08-30T02:22:52;10.23;;;4.18;;
79454;SDS011;68900;52.134;5.420;2023-08-30T02:25:18;11.60;;;4.75;;
79454;SDS011;68900;52.134;5.420;2023-08-30T02:27:50;7.93;;;4.38;;
79454;SDS011;68900;52.134;5.420;2023-08-30T02:30:16;10.88;;;4.80;;
79454;SDS011;68900;52.134;5.420;2023-08-30T02:32:43;8.82;;;4.88;;
79454;SDS011;68900;52.134;5.420;2023-08-30T02:35:09;8.90;;;4.25;;
79454;SDS011;68900;52.134;5.420;2023-08-30T02:37:37;9.65;;;4.82;;
79454;SDS011;68900;52.134;5.420;2023-08-30T02:40:08;11.63;;;6.28;;
79454;SDS011;68900;52.134;5.420;2023-08-30T02:42:35;10.80;;;5.35;;
79454;SDS011;68900;52.134;5.420;2023-08-30T02:45:01;9.73;;;5.57;;
79454;SDS011;68900;52.134;5.420;2023-08-30T02:47:28;10.48;;;5.13;;
79454;SDS011;68900;52.134;5.420;2023-08-30T02:49:57;10.00;;;5.30;;
79454;SDS011;68900;52.134;5.420;2023-08-30T02:52:23;11.95;;;5.43;;
79454;SDS011;68900;52.134;5.420;2023-08-30T02:54:50;9.35;;;5.00;;
79454;SDS011;68900;52.134;5.420;2023-08-30T02:57:20;11.45;;;5.30;;
79454;SDS011;68900;52.134;5.420;2023-08-30T02:59:46;10.13;;;5.57;;
79454;SDS011;68900;52.134;5.420;2023-08-30T03:02:12;12.13;;;6.13;;
79454;SDS011;68900;52.134;5.420;2023-08-30T03:04:39;9.82;;;5.65;;
79454;SDS011;68900;52.134;5.420;2023-08-30T03:07:05;12.45;;;6.07;;
79454;SDS011;68900;52.134;5.420;2023-08-30T03:09:32;11.40;;;5.88;;
79454;SDS011;68900;52.134;5.420;2023-08-30T03:11:58;11.60;;;5.63;;
79454;SDS011;68900;52.134;5.420;2023-08-30T03:14:25;11.35;;;6.18;;
79454;SDS011;68900;52.134;5.420;2023-08-30T03:16:51;10.38;;;5.47;;
79454;SDS011;68900;52.134;5.420;2023-08-30T03:19:18;10.75;;;5.38;;
79454;SDS011;68900;52.134;5.420;2023-08-30T03:21:47;11.13;;;6.03;;
79454;SDS011;68900;52.134;5.420;2023-08-30T03:24:13;11.88;;;6.45;;
79454;SDS011;68900;52.134;5.420;2023-08-30T03:26:45;13.35;;;5.95;;
79454;SDS011;68900;52.134;5.420;2023-08-30T03:29:11;12.13;;;6.00;;
79454;SDS011;68900;52.134;5.420;2023-08-30T03:31:38;13.10;;;6.53;;
79454;SDS011;68900;52.134;5.420;2023-08-30T03:34:04;11.05;;;6.00;;
79454;SDS011;68900;52.134;5.420;2023-08-30T03:36:30;10.55;;;5.55;;
79454;SDS011;68900;52.134;5.420;2023-08-30T03:38:57;12.18;;;6.45;;
79454;SDS011;68900;52.134;5.420;2023-08-30T03:41:24;14.05;;;6.70;;
79454;SDS011;68900;52.134;5.420;2023-08-30T03:43:50;11.40;;;5.70;;
79454;SDS011;68900;52.134;5.420;2023-08-30T03:46:16;13.50;;;6.03;;
79454;SDS011;68900;52.134;5.420;2023-08-30T03:48:43;12.20;;;5.60;;
79454;SDS011;68900;52.134;5.420;2023-08-30T03:51:09;11.75;;;6.15;;
79454;SDS011;68900;52.134;5.420;2023-08-30T03:53:36;11.70;;;6.03;;
79454;SDS011;68900;52.134;5.420;2023-08-30T03:56:02;11.77;;;6.07;;
79454;SDS011;68900;52.134;5.420;2023-08-30T03:58:29;12.57;;;6.78;;
79454;SDS011;68900;52.134;5.420;2023-08-30T04:00:56;13.07;;;6.53;;
79454;SDS011;68900;52.134;5.420;2023-08-30T04:03:23;12.05;;;6.30;;
79454;SDS011;68900;52.134;5.420;2023-08-30T04:05:56;11.90;;;6.13;;
79454;SDS011;68900;52.134;5.420;2023-08-30T04:08:23;11.85;;;5.50;;
79454;SDS011;68900;52.134;5.420;2023-08-30T04:10:51;10.93;;;5.97;;
79454;SDS011;68900;52.134;5.420;2023-08-30T04:13:21;13.60;;;6.25;;
79454;SDS011;68900;52.134;5.420;2023-08-30T04:15:48;12.60;;;6.70;;
79454;SDS011;68900;52.134;5.420;2023-08-30T04:18:15;11.05;;;5.57;;
79454;SDS011;68900;52.134;5.420;2023-08-30T04:20:44;11.18;;;5.70;;
79454;SDS011;68900;52.134;5.420;2023-08-30T04:23:12;10.90;;;5.70;;
79454;SDS011;68900;52.134;5.420;2023-08-30T04:25:39;13.82;;;6.45;;
79454;SDS011;68900;52.134;5.420;2023-08-30T04:28:06;15.63;;;6.20;;
79454;SDS011;68900;52.134;5.420;2023-08-30T04:30:35;13.07;;;6.57;;
79454;SDS011;68900;52.134;5.420;2023-08-30T04:33:02;11.48;;;5.80;;
79454;SDS011;68900;52.134;5.420;2023-08-30T04:35:29;12.00;;;5.60;;
79454;SDS011;68900;52.134;5.420;2023-08-30T04:37:57;11.32;;;6.45;;
79454;SDS011;68900;52.134;5.420;2023-08-30T04:40:25;15.35;;;6.47;;
79454;SDS011;68900;52.134;5.420;2023-08-30T04:42:52;13.82;;;6.40;;
79454;SDS011;68900;52.134;5.420;2023-08-30T04:45:19;13.02;;;5.95;;
79454;SDS011;68900;52.134;5.420;2023-08-30T04:47:45;13.13;;;6.03;;
79454;SDS011;68900;52.134;5.420;2023-08-30T04:50:12;14.40;;;6.50;;
79454;SDS011;68900;52.134;5.420;2023-08-30T04:52:38;12.95;;;6.43;;
79454;SDS011;68900;52.134;5.420;2023-08-30T04:55:05;15.68;;;5.85;;
79454;SDS011;68900;52.134;5.420;2023-08-30T04:57:32;12.10;;;6.10;;
79454;SDS011;68900;52.134;5.420;2023-08-30T04:59:59;11.88;;;5.85;;
79454;SDS011;68900;52.134;5.420;2023-08-30T05:02:26;9.98;;;5.40;;
79454;SDS011;68900;52.134;5.420;2023-08-30T05:04:53;11.82;;;5.57;;
79454;SDS011;68900;52.134;5.420;2023-08-30T05:07:26;13.88;;;6.15;;
79454;SDS011;68900;52.134;5.420;2023-08-30T05:09:52;11.88;;;5.82;;
79454;SDS011;68900;52.134;5.420;2023-08-30T05:12:19;13.25;;;5.72;;
79454;SDS011;68900;52.134;5.420;2023-08-30T05:14:45;12.27;;;5.68;;
79454;SDS011;68900;52.134;5.420;2023-08-30T05:17:12;11.13;;;5.50;;
79454;SDS011;68900;52.134;5.420;2023-08-30T05:19:38;14.00;;;6.28;;
79454;SDS011;68900;52.134;5.420;2023-08-30T05:22:05;11.60;;;5.90;;
79454;SDS011;68900;52.134;5.420;2023-08-30T05:24:31;11.57;;;5.45;;
79454;SDS011;68900;52.134;5.420;2023-08-30T05:26:57;14.23;;;5.85;;
79454;SDS011;68900;52.134;5.420;2023-08-30T05:29:24;14.80;;;6.60;;
79454;SDS011;68900;52.134;5.420;2023-08-30T05:31:50;12.32;;;5.72;;
79454;SDS011;68900;52.134;5.420;2023-08-30T05:34:17;13.15;;;5.97;;
79454;SDS011;68900;52.134;5.420;2023-08-30T05:36:43;14.10;;;6.05;;
79454;SDS011;68900;52.134;5.420;2023-08-30T05:39:10;12.38;;;6.07;;
79454;SDS011;68900;52.134;5.420;2023-08-30T05:41:36;15.15;;;6.32;;
79454;SDS011;68900;52.134;5.420;2023-08-30T05:44:03;12.25;;;5.85;;
79454;SDS011;68900;52.134;5.420;2023-08-30T05:46:30;11.90;;;6.57;;
79454;SDS011;68900;52.134;5.420;2023-08-30T05:48:56;12.50;;;5.43;;
79454;SDS011;68900;52.134;5.420;2023-08-30T05:51:23;13.95;;;7.05;;
79454;SDS011;68900;52.134;5.420;2023-08-30T05:53:49;13.13;;;6.32;;
79454;SDS011;68900;52.134;5.420;2023-08-30T05:56:16;10.20;;;5.50;;
79454;SDS011;68900;52.134;5.420;2023-08-30T05:58:43;11.75;;;5.80;;
79454;SDS011;68900;52.134;5.420;2023-08-30T06:01:09;11.70;;;5.70;;
79454;SDS011;68900;52.134;5.420;2023-08-30T06:03:36;12.75;;;5.32;;
79454;SDS011;68900;52.134;5.420;2023-08-30T06:06:03;9.57;;;5.18;;
79454;SDS011;68900;52.134;5.420;2023-08-30T06:08:33;12.63;;;6.25;;
79454;SDS011;68900;52.134;5.420;2023-08-30T06:11:00;12.60;;;6.00;;
79454;SDS011;68900;52.134;5.420;2023-08-30T06:13:26;14.43;;;6.70;;
79454;SDS011;68900;52.134;5.420;2023-08-30T06:15:53;12.88;;;6.15;;
79454;SDS011;68900;52.134;5.420;2023-08-30T06:18:19;15.70;;;5.97;;
79454;SDS011;68900;52.134;5.420;2023-08-30T06:20:46;13.38;;;5.90;;
79454;SDS011;68900;52.134;5.420;2023-08-30T06:23:13;12.05;;;6.30;;
79454;SDS011;68900;52.134;5.420;2023-08-30T06:25:41;13.55;;;6.18;;
79454;SDS011;68900;52.134;5.420;2023-08-30T06:28:08;11.77;;;5.65;;
79454;SDS011;68900;52.134;5.420;2023-08-30T06:30:35;12.15;;;5.68;;
79454;SDS011;68900;52.134;5.420;2023-08-30T06:33:01;12.48;;;6.28;;
79454;SDS011;68900;52.134;5.420;2023-08-30T06:35:28;12.18;;;5.55;;
79454;SDS011;68900;52.134;5.420;2023-08-30T06:37:55;14.27;;;6.15;;
79454;SDS011;68900;52.134;5.420;2023-08-30T06:40:22;13.25;;;6.07;;
79454;SDS011;68900;52.134;5.420;2023-08-30T06:42:48;12.32;;;6.43;;
79454;SDS011;68900;52.134;5.420;2023-08-30T06:45:15;13.27;;;6.30;;
79454;SDS011;68900;52.134;5.420;2023-08-30T06:47:42;13.23;;;6.70;;
79454;SDS011;68900;52.134;5.420;2023-08-30T06:50:09;11.52;;;6.05;;
79454;SDS011;68900;52.134;5.420;2023-08-30T06:52:36;13.75;;;6.53;;
79454;SDS011;68900;52.134;5.420;2023-08-30T06:55:03;17.67;;;6.38;;
79454;SDS011;68900;52.134;5.420;2023-08-30T06:57:29;13.95;;;6.13;;
79454;SDS011;68900;52.134;5.420;2023-08-30T06:59:56;12.48;;;6.40;;
79454;SDS011;68900;52.134;5.420;2023-08-30T07:02:23;14.05;;;6.10;;
79454;SDS011;68900;52.134;5.420;2023-08-30T07:04:49;14.13;;;7.20;;
79454;SDS011;68900;52.134;5.420;2023-08-30T07:07:16;12.85;;;6.10;;
79454;SDS011;68900;52.134;5.420;2023-08-30T07:09:42;13.50;;;5.80;;
79454;SDS011;68900;52.134;5.420;2023-08-30T07:12:09;12.57;;;6.70;;
79454;SDS011;68900;52.134;5.420;2023-08-30T07:14:35;11.57;;;6.15;;
79454;SDS011;68900;52.134;5.420;2023-08-30T07:17:02;12.52;;;6.43;;
79454;SDS011;68900;52.134;5.420;2023-08-30T07:19:28;12.07;;;6.15;;
79454;SDS011;68900;52.134;5.420;2023-08-30T07:21:55;11.40;;;6.32;;
79454;SDS011;68900;52.134;5.420;2023-08-30T07:24:21;12.85;;;6.28;;
79454;SDS011;68900;52.134;5.420;2023-08-30T07:26:49;14.13;;;6.47;;
79454;SDS011;68900;52.134;5.420;2023-08-30T07:29:15;14.18;;;6.07;;
79454;SDS011;68900;52.134;5.420;2023-08-30T07:31:42;12.23;;;5.78;;
79454;SDS011;68900;52.134;5.420;2023-08-30T07:34:08;12.45;;;5.55;;
79454;SDS011;68900;52.134;5.420;2023-08-30T07:36:36;11.55;;;5.65;;
79454;SDS011;68900;52.134;5.420;2023-08-30T07:39:18;13.07;;;6.20;;
79454;SDS011;68900;52.134;5.420;2023-08-30T07:41:45;12.48;;;5.82;;
79454;SDS011;68900;52.134;5.420;2023-08-30T07:44:11;15.18;;;5.65;;
79454;SDS011;68900;52.134;5.420;2023-08-30T07:46:38;10.80;;;5.40;;
79454;SDS011;68900;52.134;5.420;2023-08-30T07:49:04;11.57;;;5.60;;
79454;SDS011;68900;52.134;5.420;2023-08-30T07:51:31;10.55;;;5.85;;
79454;SDS011;68900;52.134;5.420;2023-08-30T07:53:57;14.70;;;5.72;;
79454;SDS011;68900;52.134;5.420;2023-08-30T07:56:24;14.40;;;5.78;;
79454;SDS011;68900;52.134;5.420;2023-08-30T07:58:50;11.13;;;5.68;;
79454;SDS011;68900;52.134;5.420;2023-08-30T08:01:17;10.13;;;5.03;;
79454;SDS011;68900;52.134;5.420;2023-08-30T08:03:43;9.55;;;5.10;;
79454;SDS011;68900;52.134;5.420;2023-08-30T08:06:29;11.48;;;5.22;;
79454;SDS011;68900;52.134;5.420;2023-08-30T08:09:00;11.13;;;5.63;;
79454;SDS011;68900;52.134;5.420;2023-08-30T08:11:26;10.52;;;5.18;;
79454;SDS011;68900;52.134;5.420;2023-08-30T08:13:53;12.50;;;5.40;;
79454;SDS011;68900;52.134;5.420;2023-08-30T08:16:19;9.65;;;5.22;;
79454;SDS011;68900;52.134;5.420;2023-08-30T08:18:46;9.63;;;5.28;;
79454;SDS011;68900;52.134;5.420;2023-08-30T08:21:13;9.40;;;4.88;;
79454;SDS011;68900;52.134;5.420;2023-08-30T08:23:40;9.75;;;5.53;;
79454;SDS011;68900;52.134;5.420;2023-08-30T08:26:08;12.00;;;5.22;;
79454;SDS011;68900;52.134;5.420;2023-08-30T08:28:34;10.75;;;5.28;;
79454;SDS011;68900;52.134;5.420;2023-08-30T08:31:01;10.88;;;5.00;;
79454;SDS011;68900;52.134;5.420;2023-08-30T08:33:27;9.30;;;4.38;;
79454;SDS011;68900;52.134;5.420;2023-08-30T08:35:54;10.63;;;4.68;;
79454;SDS011;68900;52.134;5.420;2023-08-30T08:38:20;8.50;;;4.32;;
79454;SDS011;68900;52.134;5.420;2023-08-30T08:40:47;8.65;;;4.63;;
79454;SDS011;68900;52.134;5.420;2023-08-30T08:43:16;7.95;;;4.22;;
79454;SDS011;68900;52.134;5.420;2023-08-30T08:45:44;10.90;;;4.55;;
79454;SDS011;68900;52.134;5.420;2023-08-30T08:48:11;8.55;;;4.28;;
79454;SDS011;68900;52.134;5.420;2023-08-30T08:53:07;8.95;;;4.30;;
79454;SDS011;68900;52.134;5.420;2023-08-30T08:55:34;9.05;;;4.20;;
79454;SDS011;68900;52.134;5.420;2023-08-30T08:58:02;8.90;;;4.00;;
79454;SDS011;68900;52.134;5.420;2023-08-30T09:00:30;7.78;;;4.28;;
79454;SDS011;68900;52.134;5.420;2023-08-30T09:02:58;10.60;;;4.72;;
79454;SDS011;68900;52.134;5.420;2023-08-30T09:05:25;9.57;;;4.53;;
79454;SDS011;68900;52.134;5.420;2023-08-30T09:07:53;9.13;;;4.10;;
79454;SDS011;68900;52.134;5.420;2023-08-30T09:10:21;12.63;;;3.97;;
79454;SDS011;68900;52.134;5.420;2023-08-30T09:12:50;8.15;;;4.25;;
79454;SDS011;68900;52.134;5.420;2023-08-30T09:15:32;8.18;;;3.97;;
79454;SDS011;68900;52.134;5.420;2023-08-30T09:17:59;8.73;;;4.30;;
79454;SDS011;68900;52.134;5.420;2023-08-30T09:20:26;8.35;;;4.32;;
79454;SDS011;68900;52.134;5.420;2023-08-30T09:22:52;8.50;;;4.50;;
79454;SDS011;68900;52.134;5.420;2023-08-30T09:25:23;7.75;;;4.03;;
79454;SDS011;68900;52.134;5.420;2023-08-30T09:27:56;9.15;;;4.57;;
79454;SDS011;68900;52.134;5.420;2023-08-30T09:30:25;10.25;;;3.80;;
79454;SDS011;68900;52.134;5.420;2023-08-30T09:32:53;7.65;;;4.22;;
79454;SDS011;68900;52.134;5.420;2023-08-30T09:35:19;8.10;;;4.22;;
79454;SDS011;68900;52.134;5.420;2023-08-30T09:37:46;7.55;;;3.63;;
79454;SDS011;68900;52.134;5.420;2023-08-30T09:40:18;9.38;;;4.75;;
79454;SDS011;68900;52.134;5.420;2023-08-30T09:42:45;7.07;;;4.20;;
79454;SDS011;68900;52.134;5.420;2023-08-30T09:45:38;7.75;;;4.30;;
79454;SDS011;68900;52.134;5.420;2023-08-30T09:48:05;8.68;;;4.32;;
79454;SDS011;68900;52.134;5.420;2023-08-30T09:50:33;8.77;;;4.18;;
79454;SDS011;68900;52.134;5.420;2023-08-30T09:53:06;9.57;;;4.57;;
79454;SDS011;68900;52.134;5.420;2023-08-30T09:55:36;7.72;;;4.43;;
79454;SDS011;68900;52.134;5.420;2023-08-30T09:58:03;8.18;;;4.55;;
79454;SDS011;68900;52.134;5.420;2023-08-30T10:00:32;9.40;;;4.47;;
79454;SDS011;68900;52.134;5.420;2023-08-30T10:03:00;9.45;;;5.35;;
79454;SDS011;68900;52.134;5.420;2023-08-30T10:05:47;8.60;;;4.45;;
79454;SDS011;68900;52.134;5.420;2023-08-30T10:08:14;7.75;;;4.63;;
79454;SDS011;68900;52.134;5.420;2023-08-30T10:10:41;9.20;;;5.10;;
79454;SDS011;68900;52.134;5.420;2023-08-30T10:13:09;10.65;;;5.10;;
79454;SDS011;68900;52.134;5.420;2023-08-30T10:15:38;7.43;;;4.32;;
79454;SDS011;68900;52.134;5.420;2023-08-30T10:18:10;8.18;;;5.30;;
79454;SDS011;68900;52.134;5.420;2023-08-30T10:20:38;8.68;;;5.28;;
79454;SDS011;68900;52.134;5.420;2023-08-30T10:23:07;9.38;;;5.28;;
79454;SDS011;68900;52.134;5.420;2023-08-30T10:25:35;9.52;;;5.70;;
79454;SDS011;68900;52.134;5.420;2023-08-30T10:28:03;9.38;;;5.63;;
79454;SDS011;68900;52.134;5.420;2023-08-30T10:30:30;9.38;;;5.78;;
79454;SDS011;68900;52.134;5.420;2023-08-30T10:32:57;11.20;;;5.43;;
79454;SDS011;68900;52.134;5.420;2023-08-30T10:35:25;10.50;;;6.57;;
79454;SDS011;68900;52.134;5.420;2023-08-30T10:37:55;10.43;;;6.35;;
79454;SDS011;68900;52.134;5.420;2023-08-30T10:40:23;10.35;;;6.32;;
79454;SDS011;68900;52.134;5.420;2023-08-30T10:43:00;9.40;;;6.05;;
79454;SDS011;68900;52.134;5.420;2023-08-30T10:45:27;10.23;;;6.65;;
79454;SDS011;68900;52.134;5.420;2023-08-30T10:47:54;8.88;;;4.80;;
79454;SDS011;68900;52.134;5.420;2023-08-30T10:50:27;8.15;;;4.93;;
79454;SDS011;68900;52.134;5.420;2023-08-30T10:52:58;7.40;;;4.40;;
79454;SDS011;68900;52.134;5.420;2023-08-30T10:55:25;6.72;;;4.10;;
79454;SDS011;68900;52.134;5.420;2023-08-30T10:57:58;7.32;;;3.47;;
79454;SDS011;68900;52.134;5.420;2023-08-30T11:00:27;9.90;;;3.85;;
79454;SDS011;68900;52.134;5.420;2023-08-30T11:02:56;7.25;;;3.30;;
79454;SDS011;68900;52.134;5.420;2023-08-30T11:05:24;7.82;;;3.35;;
79454;SDS011;68900;52.134;5.420;2023-08-30T11:07:52;8.77;;;3.08;;
79454;SDS011;68900;52.134;5.420;2023-08-30T11:10:19;5.55;;;2.67;;
79454;SDS011;68900;52.134;5.420;2023-08-30T11:12:46;5.75;;;2.80;;
79454;SDS011;68900;52.134;5.420;2023-08-30T11:15:16;6.22;;;2.50;;
79454;SDS011;68900;52.134;5.420;2023-08-30T11:17:46;6.55;;;2.13;;
79454;SDS011;68900;52.134;5.420;2023-08-30T11:20:13;5.85;;;1.65;;
79454;SDS011;68900;52.134;5.420;2023-08-30T11:22:45;10.25;;;2.20;;
79454;SDS011;68900;52.134;5.420;2023-08-30T11:25:13;10.23;;;2.20;;
79454;SDS011;68900;52.134;5.420;2023-08-30T11:27:41;5.03;;;1.80;;
79454;SDS011;68900;52.134;5.420;2023-08-30T11:30:09;7.45;;;2.20;;
79454;SDS011;68900;52.134;5.420;2023-08-30T11:32:42;5.80;;;1.65;;
79454;SDS011;68900;52.134;5.420;2023-08-30T11:35:14;8.82;;;1.80;;
79454;SDS011;68900;52.134;5.420;2023-08-30T11:37:42;5.75;;;1.77;;
79454;SDS011;68900;52.134;5.420;2023-08-30T11:40:10;5.18;;;1.77;;
79454;SDS011;68900;52.134;5.420;2023-08-30T11:42:37;6.30;;;2.17;;
79454;SDS011;68900;52.134;5.420;2023-08-30T11:45:04;6.15;;;1.70;;
79454;SDS011;68900;52.134;5.420;2023-08-30T11:47:31;8.85;;;2.40;;
79454;SDS011;68900;52.134;5.420;2023-08-30T11:49:58;7.30;;;1.67;;
79454;SDS011;68900;52.134;5.420;2023-08-30T11:52:25;6.53;;;2.03;;
79454;SDS011;68900;52.134;5.420;2023-08-30T11:54:52;7.30;;;1.73;;
79454;SDS011;68900;52.134;5.420;2023-08-30T11:57:20;9.32;;;2.00;;
79454;SDS011;68900;52.134;5.420;2023-08-30T11:59:47;9.00;;;1.65;;
79454;SDS011;68900;52.134;5.420;2023-08-30T12:02:16;8.00;;;1.55;;
79454;SDS011;68900;52.134;5.420;2023-08-30T12:04:43;7.75;;;2.13;;
79454;SDS011;68900;52.134;5.420;2023-08-30T12:07:26;6.78;;;1.80;;
79454;SDS011;68900;52.134;5.420;2023-08-30T12:12:31;7.47;;;1.85;;
79454;SDS011;68900;52.134;5.420;2023-08-30T12:14:58;10.75;;;2.33;;
79454;SDS011;68900;52.134;5.420;2023-08-30T12:17:24;8.05;;;1.95;;
79454;SDS011;68900;52.134;5.420;2023-08-30T12:19:57;7.57;;;2.08;;
79454;SDS011;68900;52.134;5.420;2023-08-30T12:22:35;6.85;;;1.65;;
79454;SDS011;68900;52.134;5.420;2023-08-30T12:25:15;7.55;;;1.55;;
79454;SDS011;68900;52.134;5.420;2023-08-30T12:27:43;12.20;;;1.83;;
79454;SDS011;68900;52.134;5.420;2023-08-30T12:30:16;7.47;;;1.58;;
79454;SDS011;68900;52.134;5.420;2023-08-30T12:32:46;5.65;;;1.63;;
79454;SDS011;68900;52.134;5.420;2023-08-30T12:35:13;6.05;;;1.60;;
79454;SDS011;68900;52.134;5.420;2023-08-30T12:37:41;7.00;;;1.50;;
79454;SDS011;68900;52.134;5.420;2023-08-30T12:40:09;6.97;;;1.40;;
79454;SDS011;68900;52.134;5.420;2023-08-30T12:42:36;5.90;;;1.55;;
79454;SDS011;68900;52.134;5.420;2023-08-30T12:45:04;5.38;;;1.30;;
79454;SDS011;68900;52.134;5.420;2023-08-30T12:47:34;6.43;;;1.33;;
79454;SDS011;68900;52.134;5.420;2023-08-30T12:50:02;4.95;;;1.30;;
79454;SDS011;68900;52.134;5.420;2023-08-30T12:52:29;7.22;;;1.35;;
79454;SDS011;68900;52.134;5.420;2023-08-30T12:54:58;6.00;;;1.42;;
79454;SDS011;68900;52.134;5.420;2023-08-30T12:57:33;5.68;;;1.50;;
79454;SDS011;68900;52.134;5.420;2023-08-30T13:00:00;7.88;;;1.40;;
79454;SDS011;68900;52.134;5.420;2023-08-30T13:02:28;5.75;;;1.48;;
79454;SDS011;68900;52.134;5.420;2023-08-30T13:04:55;7.45;;;1.20;;
79454;SDS011;68900;52.134;5.420;2023-08-30T13:07:21;8.27;;;1.17;;
79454;SDS011;68900;52.134;5.420;2023-08-30T13:09:48;8.38;;;1.70;;
79454;SDS011;68900;52.134;5.420;2023-08-30T13:12:14;5.93;;;1.40;;
79454;SDS011;68900;52.134;5.420;2023-08-30T13:14:41;5.40;;;1.27;;
79454;SDS011;68900;52.134;5.420;2023-08-30T13:17:07;8.18;;;1.48;;
79454;SDS011;68900;52.134;5.420;2023-08-30T13:19:34;6.32;;;1.27;;
79454;SDS011;68900;52.134;5.420;2023-08-30T13:22:00;6.90;;;1.33;;
79454;SDS011;68900;52.134;5.420;2023-08-30T13:24:47;6.13;;;1.30;;
79454;SDS011;68900;52.134;5.420;2023-08-30T13:27:14;6.72;;;1.30;;
79454;SDS011;68900;52.134;5.420;2023-08-30T13:29:51;6.15;;;1.55;;
79454;SDS011;68900;52.134;5.420;2023-08-30T13:32:17;4.95;;;1.50;;
79454;SDS011;68900;52.134;5.420;2023-08-30T13:34:44;7.22;;;1.35;;
79454;SDS011;68900;52.134;5.420;2023-08-30T13:37:12;6.75;;;1.15;;
79454;SDS011;68900;52.134;5.420;2023-08-30T13:39:39;5.28;;;1.35;;
79454;SDS011;68900;52.134;5.420;2023-08-30T13:42:06;7.57;;;1.42;;
79454;SDS011;68900;52.134;5.420;2023-08-30T13:44:32;7.78;;;1.30;;
79454;SDS011;68900;52.134;5.420;2023-08-30T13:47:02;4.55;;;0.98;;
79454;SDS011;68900;52.134;5.420;2023-08-30T13:49:28;5.70;;;1.38;;
79454;SDS011;68900;52.134;5.420;2023-08-30T13:51:56;7.25;;;1.40;;
79454;SDS011;68900;52.134;5.420;2023-08-30T13:54:29;5.25;;;1.20;;
79454;SDS011;68900;52.134;5.420;2023-08-30T13:56:56;7.80;;;1.20;;
79454;SDS011;68900;52.134;5.420;2023-08-30T14:01:53;8.88;;;1.70;;
79454;SDS011;68900;52.134;5.420;2023-08-30T14:04:36;9.07;;;1.45;;
79454;SDS011;68900;52.134;5.420;2023-08-30T14:07:27;7.50;;;1.25;;
79454;SDS011;68900;52.134;5.420;2023-08-30T14:10:23;5.93;;;1.40;;
79454;SDS011;68900;52.134;5.420;2023-08-30T14:13:04;6.53;;;1.30;;
79454;SDS011;68900;52.134;5.420;2023-08-30T14:16:17;5.38;;;0.93;;
79454;SDS011;68900;52.134;5.420;2023-08-30T14:19:03;3.83;;;0.70;;
79454;SDS011;68900;52.134;5.420;2023-08-30T14:21:46;5.65;;;1.00;;
79454;SDS011;68900;52.134;5.420;2023-08-30T14:24:13;6.72;;;1.30;;
79454;SDS011;68900;52.134;5.420;2023-08-30T14:26:39;4.15;;;0.80;;
79454;SDS011;68900;52.134;5.420;2023-08-30T14:29:19;7.03;;;1.23;;
79454;SDS011;68900;52.134;5.420;2023-08-30T14:31:46;6.57;;;1.20;;
79454;SDS011;68900;52.134;5.420;2023-08-30T14:34:13;4.07;;;0.75;;
79454;SDS011;68900;52.134;5.420;2023-08-30T14:36:40;5.60;;;1.02;;
79454;SDS011;68900;52.134;5.420;2023-08-30T14:39:09;5.35;;;1.13;;
79454;SDS011;68900;52.134;5.420;2023-08-30T14:41:38;5.70;;;1.05;;
79454;SDS011;68900;52.134;5.420;2023-08-30T14:44:04;5.25;;;1.00;;
79454;SDS011;68900;52.134;5.420;2023-08-30T14:46:31;15.60;;;7.25;;
79454;SDS011;68900;52.134;5.420;2023-08-30T14:48:57;27.77;;;13.65;;
79454;SDS011;68900;52.134;5.420;2023-08-30T14:51:27;10.85;;;4.22;;
79454;SDS011;68900;52.134;5.420;2023-08-30T14:53:54;5.40;;;1.60;;
79454;SDS011;68900;52.134;5.420;2023-08-30T14:56:21;5.25;;;1.42;;
79454;SDS011;68900;52.134;5.420;2023-08-30T14:58:50;4.97;;;1.15;;
79454;SDS011;68900;52.134;5.420;2023-08-30T15:01:17;5.25;;;1.58;;
79454;SDS011;68900;52.134;5.420;2023-08-30T15:03:43;8.32;;;1.63;;
79454;SDS011;68900;52.134;5.420;2023-08-30T15:06:11;4.03;;;1.33;;
79454;SDS011;68900;52.134;5.420;2023-08-30T15:08:37;5.68;;;1.10;;